Time,TemperatureF,DewpointF,PressureIn,WindDirection,WindDirectionDegrees,WindSpeedMPH,WindSpeedGustMPH,Humidity,HourlyPrecipIn,Conditions,Clouds,dailyrainin,SoftwareType,DateUTC
2013-07-12 00:08:00,76.3,55.7,29.82,NW,321,4.0,4.0,49,0.00,,,0.00,Wunderground v.1.15,2013-07-12 06:08:00,
2013-07-12 00:18:00,76.2,55.6,29.82,NNW,335,3.0,4.0,49,0.00,,,0.00,Wunderground v.1.15,2013-07-12 06:18:00,
2013-07-12 00:28:00,76.1,55.5,29.82,NNW,330,3.0,7.0,49,0.00,,,0.00,Wunderground v.1.15,2013-07-12 06:28:00,
2013-07-12 00:33:00,75.7,56.8,29.82,NNW,342,5.0,7.0,52,0.00,,,0.00,Wunderground v.1.15,2013-07-12 06:33:00,
2013-07-12 00:43:00,73.9,56.7,29.81,NNW,348,4.0,5.0,55,0.00,,,0.00,Wunderground v.1.15,2013-07-12 06:43:00,
2013-07-12 00:53:00,73.5,56.3,29.81,NE,43,3.0,4.0,55,0.00,,,0.00,Wunderground v.1.15,2013-07-12 06:53:00,
2013-07-12 00:58:00,73.5,56.3,29.81,North,350,2.0,2.0,55,0.00,,,0.00,Wunderground v.1.15,2013-07-12 06:58:00,
2013-07-12 01:08:00,73.7,56.5,29.81,NE,37,2.0,2.0,55,0.00,,,0.00,Wunderground v.1.15,2013-07-12 07:08:00,
2013-07-12 01:13:00,73.8,56.1,29.81,North,8,2.0,2.0,54,0.00,,,0.00,Wunderground v.1.15,2013-07-12 07:13:00,
2013-07-12 01:18:00,73.8,56.1,29.81,North,6,1.0,1.0,54,0.00,,,0.00,Wunderground v.1.15,2013-07-12 07:18:00,
2013-07-12 01:28:00,73.8,56.1,29.80,NW,313,1.0,1.0,54,0.00,,,0.00,Wunderground v.1.15,2013-07-12 07:28:00,
2013-07-12 01:38:00,73.5,56.3,29.80,NNW,330,0.0,0.0,55,0.00,,,0.00,Wunderground v.1.15,2013-07-12 07:38:00,
2013-07-12 01:48:00,72.8,57.2,29.80,NNW,333,0.0,0.0,58,0.00,,,0.00,Wunderground v.1.15,2013-07-12 07:48:00,
2013-07-12 01:53:00,72.4,57.7,29.80,South,178,0.0,0.0,60,0.00,,,0.00,Wunderground v.1.15,2013-07-12 07:53:00,
2013-07-12 01:58:00,72.1,57.9,29.80,South,181,0.0,0.0,61,0.00,,,0.00,Wunderground v.1.15,2013-07-12 07:58:00,
2013-07-12 02:08:00,71.5,58.7,29.81,NW,311,0.0,2.0,64,0.00,,,0.00,Wunderground v.1.15,2013-07-12 08:08:00,
2013-07-12 02:18:00,70.9,59.0,29.81,North,360,2.0,4.0,66,0.00,,,0.00,Wunderground v.1.15,2013-07-12 08:18:00,
2013-07-12 02:28:00,70.7,58.4,29.81,NE,39,3.0,3.0,65,0.00,,,0.00,Wunderground v.1.15,2013-07-12 08:28:00,
2013-07-12 02:33:00,70.7,58.4,29.81,North,9,2.0,3.0,65,0.00,,,0.00,Wunderground v.1.15,2013-07-12 08:33:00,
2013-07-12 02:43:00,70.7,58.4,29.80,NNE,28,1.0,1.0,65,0.00,,,0.00,Wunderground v.1.15,2013-07-12 08:43:00,
2013-07-12 02:53:00,70.5,58.2,29.81,North,1,0.0,0.0,65,0.00,,,0.00,Wunderground v.1.15,2013-07-12 08:53:00,
2013-07-12 02:58:00,70.6,58.3,29.81,North,356,0.0,0.0,65,0.00,,,0.00,Wunderground v.1.15,2013-07-12 08:58:00,
2013-07-12 03:08:00,70.6,57.8,29.81,West,278,0.0,0.0,64,0.00,,,0.00,Wunderground v.1.15,2013-07-12 09:08:00,
2013-07-12 03:13:00,70.4,57.6,29.81,West,278,0.0,0.0,64,0.00,,,0.00,Wunderground v.1.15,2013-07-12 09:13:00,
2013-07-12 03:23:00,69.7,57.8,29.81,West,280,0.0,1.0,66,0.00,,,0.00,Wunderground v.1.15,2013-07-12 09:23:00,
2013-07-12 03:28:00,69.5,57.6,29.82,West,278,0.0,0.0,66,0.00,,,0.00,Wunderground v.1.15,2013-07-12 09:28:00,
2013-07-12 03:38:00,70.2,57.4,29.82,NW,309,1.0,2.0,64,0.00,,,0.00,Wunderground v.1.15,2013-07-12 09:38:00,
2013-07-12 03:43:00,70.4,57.6,29.81,NNW,339,2.0,2.0,64,0.00,,,0.00,Wunderground v.1.15,2013-07-12 09:43:00,
2013-07-12 03:53:00,70.4,57.2,29.81,North,6,1.0,3.0,63,0.00,,,0.00,Wunderground v.1.15,2013-07-12 09:53:00,
2013-07-12 03:58:00,70.2,57.0,29.81,NNE,13,0.0,0.0,63,0.00,,,0.00,Wunderground v.1.15,2013-07-12 09:58:00,
2013-07-12 04:08:00,70.0,57.3,29.81,NW,316,0.0,1.0,64,0.00,,,0.00,Wunderground v.1.15,2013-07-12 10:08:00,
2013-07-12 04:18:00,69.9,57.2,29.82,NNE,13,2.0,3.0,64,0.00,,,0.00,Wunderground v.1.15,2013-07-12 10:18:00,
2013-07-12 04:28:00,69.7,57.4,29.82,NNW,340,2.0,2.0,65,0.00,,,0.00,Wunderground v.1.15,2013-07-12 10:28:00,
2013-07-12 04:33:00,69.5,57.2,29.82,NW,323,2.0,2.0,65,0.00,,,0.00,Wunderground v.1.15,2013-07-12 10:33:00,
2013-07-12 04:43:00,69.3,57.5,29.82,NNW,337,1.0,2.0,66,0.00,,,0.00,Wunderground v.1.15,2013-07-12 10:43:00,
2013-07-12 04:53:00,69.2,57.4,29.82,NNE,17,1.0,1.0,66,0.00,,,0.00,Wunderground v.1.15,2013-07-12 10:53:00,
2013-07-12 04:58:00,69.0,57.2,29.82,NNE,15,0.0,0.0,66,0.00,,,0.00,Wunderground v.1.15,2013-07-12 10:58:00,
2013-07-12 05:08:00,68.4,57.4,29.82,ENE,70,0.0,0.0,68,0.00,,,0.00,Wunderground v.1.15,2013-07-12 11:08:00,
2013-07-12 05:13:00,68.2,57.2,29.82,ENE,70,0.0,0.0,68,0.00,,,0.00,Wunderground v.1.15,2013-07-12 11:13:00,
2013-07-12 05:18:00,67.9,56.9,29.81,ENE,69,0.0,0.0,68,0.00,,,0.00,Wunderground v.1.15,2013-07-12 11:18:00,
2013-07-12 05:23:00,67.9,57.4,29.81,ENE,71,0.0,0.0,69,0.00,,,0.00,Wunderground v.1.15,2013-07-12 11:23:00,
2013-07-12 05:33:00,67.4,57.3,29.82,ENE,70,0.0,0.0,70,0.00,,,0.00,Wunderground v.1.15,2013-07-12 11:33:00,
2013-07-12 05:43:00,67.1,57.4,29.82,ENE,70,0.0,0.0,71,0.00,,,0.00,Wunderground v.1.15,2013-07-12 11:43:00,
2013-07-12 05:53:00,66.9,57.6,29.82,ENE,65,0.0,0.0,72,0.00,,,0.00,Wunderground v.1.15,2013-07-12 11:53:00,
2013-07-12 05:58:00,66.8,57.5,29.82,ENE,66,0.0,0.0,72,0.00,,,0.00,Wunderground v.1.15,2013-07-12 11:58:00,
2013-07-12 06:08:00,66.4,57.1,29.82,ENE,66,0.0,0.0,72,0.00,,,0.00,Wunderground v.1.15,2013-07-12 12:08:00,
2013-07-12 06:18:00,66.4,57.5,29.83,ENE,66,0.0,0.0,73,0.00,,,0.00,Wunderground v.1.15,2013-07-12 12:18:00,
2013-07-12 06:28:00,66.8,57.5,29.83,NNW,342,0.0,0.0,72,0.00,,,0.00,Wunderground v.1.15,2013-07-12 12:28:00,
2013-07-12 06:33:00,66.9,58.0,29.83,NNW,343,0.0,0.0,73,0.00,,,0.00,Wunderground v.1.15,2013-07-12 12:33:00,
2013-07-12 06:38:00,67.2,57.9,29.83,NNW,345,0.0,0.0,72,0.00,,,0.00,Wunderground v.1.15,2013-07-12 12:38:00,
2013-07-12 06:48:00,67.4,58.1,29.84,NNW,344,0.0,0.0,72,0.00,,,0.00,Wunderground v.1.15,2013-07-12 12:48:00,
2013-07-12 06:53:00,67.4,58.1,29.84,NNW,345,0.0,0.0,72,0.00,,,0.00,Wunderground v.1.15,2013-07-12 12:53:00,
2013-07-12 06:58:00,67.4,58.1,29.84,NNW,344,0.0,0.0,72,0.00,,,0.00,Wunderground v.1.15,2013-07-12 12:58:00,
2013-07-12 07:08:00,68.3,58.5,29.84,NNW,346,0.0,0.0,71,0.00,,,0.00,Wunderground v.1.15,2013-07-12 13:08:00,
2013-07-12 07:18:00,69.0,58.4,29.84,NNW,346,0.0,0.0,69,0.00,,,0.00,Wunderground v.1.15,2013-07-12 13:18:00,
2013-07-12 07:23:00,69.4,58.4,29.85,NNW,346,0.0,0.0,68,0.00,,,0.00,Wunderground v.1.15,2013-07-12 13:23:00,
2013-07-12 07:33:00,70.8,58.9,29.85,SE,136,0.0,1.0,66,0.00,,,0.00,Wunderground v.1.15,2013-07-12 13:33:00,
2013-07-12 07:43:00,71.8,59.0,29.85,SSE,158,1.0,1.0,64,0.00,,,0.00,Wunderground v.1.15,2013-07-12 13:43:00,
2013-07-12 07:53:00,72.4,58.6,29.85,SE,146,1.0,3.0,62,0.00,,,0.00,Wunderground v.1.15,2013-07-12 13:53:00,
2013-07-12 07:58:00,72.8,58.6,29.85,SE,146,2.0,4.0,61,0.00,,,0.00,Wunderground v.1.15,2013-07-12 13:58:00,
2013-07-12 08:08:00,73.3,58.6,29.86,SE,141,3.0,3.0,60,0.00,,,0.00,Wunderground v.1.15,2013-07-12 14:08:00,
2013-07-12 08:18:00,74.0,59.2,29.86,SSW,207,4.0,4.0,60,0.00,,,0.00,Wunderground v.1.15,2013-07-12 14:18:00,
2013-07-12 08:28:00,74.4,59.1,29.86,SSE,148,5.0,8.0,59,0.00,,,0.00,Wunderground v.1.15,2013-07-12 14:28:00,
2013-07-12 08:38:00,74.9,60.1,29.87,ESE,114,4.0,4.0,60,0.00,,,0.00,Wunderground v.1.15,2013-07-12 14:38:00,
2013-07-12 08:48:00,74.5,59.7,29.87,South,171,5.0,5.0,60,0.00,,,0.00,Wunderground v.1.15,2013-07-12 14:48:00,
2013-07-12 08:58:00,74.2,59.9,29.87,SE,132,6.0,6.0,61,0.00,,,0.00,Wunderground v.1.15,2013-07-12 14:58:00,
2013-07-12 09:08:00,73.6,60.2,29.88,SSE,148,6.0,6.0,63,0.00,,,0.00,Wunderground v.1.15,2013-07-12 15:08:00,
2013-07-12 09:18:00,73.9,60.1,29.88,SE,132,3.0,5.0,62,0.00,,,0.00,Wunderground v.1.15,2013-07-12 15:18:00,
2013-07-12 09:23:00,74.2,59.9,29.88,East,100,3.0,5.0,61,0.00,,,0.00,Wunderground v.1.15,2013-07-12 15:23:00,
2013-07-12 09:33:00,74.6,59.3,29.88,SE,137,4.0,6.0,59,0.00,,,0.00,Wunderground v.1.15,2013-07-12 15:33:00,
2013-07-12 09:38:00,75.2,59.9,29.88,ESE,108,4.0,4.0,59,0.00,,,0.00,Wunderground v.1.15,2013-07-12 15:38:00,
2013-07-12 09:48:00,76.3,58.9,29.88,SE,143,3.0,3.0,55,0.00,,,0.00,Wunderground v.1.15,2013-07-12 15:48:00,
2013-07-12 09:53:00,76.7,57.7,29.88,SE,139,3.0,3.0,52,0.00,,,0.00,Wunderground v.1.15,2013-07-12 15:53:00,
2013-07-12 09:58:00,77.1,57.6,29.88,ESE,111,3.0,4.0,51,0.00,,,0.00,Wunderground v.1.15,2013-07-12 15:58:00,
2013-07-12 10:08:00,78.3,57.0,29.87,SE,141,4.0,5.0,48,0.00,,,0.00,Wunderground v.1.15,2013-07-12 16:08:00,
2013-07-12 10:13:00,78.7,56.8,29.87,SE,131,4.0,5.0,47,0.00,,,0.00,Wunderground v.1.15,2013-07-12 16:13:00,
2013-07-12 10:23:00,79.1,56.5,29.87,SE,129,5.0,6.0,46,0.00,,,0.00,Wunderground v.1.15,2013-07-12 16:23:00,
2013-07-12 10:28:00,79.6,57.0,29.87,ESE,122,5.0,5.0,46,0.00,,,0.00,Wunderground v.1.15,2013-07-12 16:28:00,
2013-07-12 10:33:00,80.3,57.0,29.87,SSE,156,4.0,5.0,45,0.00,,,0.00,Wunderground v.1.15,2013-07-12 16:33:00,
2013-07-12 10:43:00,81.0,57.0,29.86,SE,137,4.0,4.0,44,0.00,,,0.00,Wunderground v.1.15,2013-07-12 16:43:00,
2013-07-12 10:53:00,81.7,57.7,29.86,SSW,205,4.0,5.0,44,0.00,,,0.00,Wunderground v.1.15,2013-07-12 16:53:00,
2013-07-12 10:58:00,82.1,58.0,29.86,SE,128,4.0,4.0,44,0.00,,,0.00,Wunderground v.1.15,2013-07-12 16:58:00,
2013-07-12 11:13:00,82.1,58.7,29.86,SW,217,5.0,6.0,45,0.00,,,0.00,Wunderground v.1.15,2013-07-12 17:13:00,
2013-07-12 11:23:00,82.9,58.1,29.85,WSW,257,2.0,4.0,43,0.00,,,0.00,Wunderground v.1.15,2013-07-12 17:23:00,
2013-07-12 11:28:00,83.4,58.6,29.85,SW,219,2.0,2.0,43,0.00,,,0.00,Wunderground v.1.15,2013-07-12 17:28:00,
2013-07-12 11:33:00,84.0,58.4,29.85,SW,227,2.0,2.0,42,0.00,,,0.00,Wunderground v.1.15,2013-07-12 17:33:00,
2013-07-12 11:43:00,84.1,57.9,29.84,WSW,255,4.0,4.0,41,0.00,,,0.00,Wunderground v.1.15,2013-07-12 17:43:00,
2013-07-12 11:53:00,84.3,58.0,29.84,SW,218,3.0,4.0,41,0.00,,,0.00,Wunderground v.1.15,2013-07-12 17:53:00,
2013-07-12 11:58:00,84.8,57.8,29.83,SSW,211,2.0,3.0,40,0.00,,,0.00,Wunderground v.1.15,2013-07-12 17:58:00,
2013-07-12 12:08:00,84.5,57.5,29.83,SSE,161,5.0,8.0,40,0.00,,,0.00,Wunderground v.1.15,2013-07-12 18:08:00,
2013-07-12 12:13:00,84.4,57.4,29.82,NW,319,5.0,8.0,40,0.00,,,0.00,Wunderground v.1.15,2013-07-12 18:13:00,
2013-07-12 12:23:00,85.4,56.9,29.82,South,188,4.0,4.0,38,0.00,,,0.00,Wunderground v.1.15,2013-07-12 18:23:00,
2013-07-12 12:28:00,86.1,56.8,29.82,WSW,255,4.0,4.0,37,0.00,,,0.00,Wunderground v.1.15,2013-07-12 18:28:00,
2013-07-12 12:33:00,86.6,57.2,29.81,WSW,241,3.0,4.0,37,0.00,,,0.00,Wunderground v.1.15,2013-07-12 18:33:00,
2013-07-12 12:43:00,87.0,56.8,29.81,SSW,195,3.0,6.0,36,0.00,,,0.00,Wunderground v.1.15,2013-07-12 18:43:00,
2013-07-12 12:48:00,86.8,55.9,29.81,WSW,238,4.0,4.0,35,0.00,,,0.00,Wunderground v.1.15,2013-07-12 18:48:00,
2013-07-12 12:53:00,86.8,56.6,29.81,NW,313,4.0,4.0,36,0.00,,,0.00,Wunderground v.1.15,2013-07-12 18:53:00,
2013-07-12 13:08:00,87.2,57.0,29.80,SE,127,3.0,3.0,36,0.00,,,0.00,Wunderground v.1.15,2013-07-12 19:08:00,
2013-07-12 13:13:00,88.1,57.0,29.80,SW,214,3.0,3.0,35,0.00,,,0.00,Wunderground v.1.15,2013-07-12 19:13:00,
2013-07-12 13:23:00,88.6,56.6,29.80,South,173,5.0,8.0,34,0.00,,,0.00,Wunderground v.1.15,2013-07-12 19:23:00,
2013-07-12 13:33:00,89.2,55.5,29.79,SSE,152,3.0,4.0,32,0.00,,,0.00,Wunderground v.1.15,2013-07-12 19:33:00,
2013-07-12 13:43:00,88.4,55.6,29.78,SE,136,4.0,4.0,33,0.00,,,0.00,Wunderground v.1.15,2013-07-12 19:43:00,
2013-07-12 13:58:00,88.8,56.0,29.77,West,280,3.0,3.0,33,0.00,,,0.00,Wunderground v.1.15,2013-07-12 19:58:00,
2013-07-12 14:13:00,88.7,55.1,29.77,SW,225,4.0,6.0,32,0.00,,,0.00,Wunderground v.1.15,2013-07-12 20:13:00,
2013-07-12 14:28:00,88.0,54.4,29.77,SSE,148,8.0,12.0,32,0.00,,,0.00,Wunderground v.1.15,2013-07-12 20:28:00,
2013-07-12 14:38:00,88.7,55.1,29.76,SSE,155,7.0,7.0,32,0.00,,,0.00,Wunderground v.1.15,2013-07-12 20:38:00,
2013-07-12 14:43:00,89.0,54.4,29.76,South,174,7.0,7.0,31,0.00,,,0.00,Wunderground v.1.15,2013-07-12 20:43:00,
2013-07-12 14:53:00,88.7,53.3,29.76,East,97,6.0,7.0,30,0.00,,,0.00,Wunderground v.1.15,2013-07-12 20:53:00,
2013-07-12 14:58:00,89.6,53.1,29.76,SW,215,5.0,5.0,29,0.00,,,0.00,Wunderground v.1.15,2013-07-12 20:58:00,
2013-07-12 15:08:00,89.3,51.9,29.76,South,173,4.0,5.0,28,0.00,,,0.00,Wunderground v.1.15,2013-07-12 21:08:00,
2013-07-12 15:13:00,88.6,51.3,29.76,South,174,4.0,5.0,28,0.00,,,0.00,Wunderground v.1.15,2013-07-12 21:13:00,
2013-07-12 15:18:00,88.5,50.3,29.76,WNW,295,4.0,4.0,27,0.00,,,0.00,Wunderground v.1.15,2013-07-12 21:18:00,
2013-07-12 15:33:00,88.9,52.5,29.76,West,271,4.0,12.0,29,0.00,,,0.00,Wunderground v.1.15,2013-07-12 21:33:00,
2013-07-12 15:38:00,88.4,52.1,29.76,West,271,5.0,5.0,29,0.00,,,0.00,Wunderground v.1.15,2013-07-12 21:38:00,
2013-07-12 15:48:00,88.8,51.5,29.76,SW,224,4.0,9.0,28,0.00,,,0.00,Wunderground v.1.15,2013-07-12 21:48:00,
2013-07-12 16:03:00,88.3,53.8,29.76,WSW,246,4.0,5.0,31,0.00,,,0.00,Wunderground v.1.15,2013-07-12 22:03:00,
2013-07-12 16:13:00,87.7,52.4,29.75,West,267,4.0,5.0,30,0.00,,,0.00,Wunderground v.1.15,2013-07-12 22:13:00,
2013-07-12 16:18:00,88.1,51.8,29.75,NW,309,4.0,4.0,29,0.00,,,0.00,Wunderground v.1.15,2013-07-12 22:18:00,
2013-07-12 16:28:00,87.7,51.5,29.75,WSW,253,3.0,3.0,29,0.00,,,0.00,Wunderground v.1.15,2013-07-12 22:28:00,
2013-07-12 16:43:00,87.8,51.6,29.74,NW,316,3.0,4.0,29,0.00,,,0.00,Wunderground v.1.15,2013-07-12 22:43:00,
2013-07-12 16:53:00,88.6,52.3,29.74,NE,53,4.0,5.0,29,0.00,,,0.00,Wunderground v.1.15,2013-07-12 22:53:00,
2013-07-12 16:58:00,88.4,52.1,29.74,NW,323,4.0,4.0,29,0.00,,,0.00,Wunderground v.1.15,2013-07-12 22:58:00,
2013-07-12 17:08:00,88.9,50.6,29.74,NW,323,4.0,4.0,27,0.00,,,0.00,Wunderground v.1.15,2013-07-12 23:08:00,
2013-07-12 17:18:00,88.9,51.6,29.74,WNW,301,5.0,5.0,28,0.00,,,0.00,Wunderground v.1.15,2013-07-12 23:18:00,
2013-07-12 17:28:00,89.8,52.3,29.74,NW,309,3.0,5.0,28,0.00,,,0.00,Wunderground v.1.15,2013-07-12 23:28:00,
2013-07-12 17:38:00,89.4,51.0,29.74,NW,308,5.0,5.0,27,0.00,,,0.00,Wunderground v.1.15,2013-07-12 23:38:00,
2013-07-12 17:48:00,89.8,50.3,29.73,NNW,335,4.0,4.0,26,0.00,,,0.00,Wunderground v.1.15,2013-07-12 23:48:00,
2013-07-12 18:03:00,89.0,51.7,29.72,NW,312,7.0,8.0,28,0.00,,,0.00,Wunderground v.1.15,2013-07-13 00:03:00,
2013-07-12 18:08:00,88.6,51.3,29.72,NNW,347,8.0,8.0,28,0.00,,,0.00,Wunderground v.1.15,2013-07-13 00:08:00,
2013-07-12 18:23:00,88.1,50.9,29.73,NNE,26,8.0,10.0,28,0.00,,,0.00,Wunderground v.1.15,2013-07-13 00:23:00,
2013-07-12 18:28:00,88.3,51.1,29.73,North,353,6.0,8.0,28,0.00,,,0.00,Wunderground v.1.15,2013-07-13 00:28:00,
2013-07-12 18:33:00,88.1,51.8,29.73,NNE,26,7.0,8.0,29,0.00,,,0.00,Wunderground v.1.15,2013-07-13 00:33:00,
2013-07-12 18:43:00,87.9,51.7,29.73,North,353,7.0,13.0,29,0.00,,,0.00,Wunderground v.1.15,2013-07-13 00:43:00,
2013-07-12 18:48:00,88.1,51.8,29.74,NNW,328,7.0,7.0,29,0.00,,,0.00,Wunderground v.1.15,2013-07-13 00:48:00,
2013-07-12 18:53:00,88.1,50.9,29.74,NNE,13,6.0,7.0,28,0.00,,,0.00,Wunderground v.1.15,2013-07-13 00:53:00,
2013-07-12 18:58:00,88.2,51.0,29.73,North,359,6.0,6.0,28,0.00,,,0.00,Wunderground v.1.15,2013-07-13 00:58:00,
2013-07-12 19:08:00,88.1,51.8,29.73,North,354,6.0,9.0,29,0.00,,,0.00,Wunderground v.1.15,2013-07-13 01:08:00,
2013-07-12 19:18:00,88.2,51.9,29.73,NW,316,5.0,5.0,29,0.00,,,0.00,Wunderground v.1.15,2013-07-13 01:18:00,
2013-07-12 19:28:00,88.0,52.7,29.73,ENE,60,3.0,3.0,30,0.00,,,0.00,Wunderground v.1.15,2013-07-13 01:28:00,
2013-07-12 19:38:00,87.5,52.2,29.73,SE,131,2.0,9.0,30,0.00,,,0.00,Wunderground v.1.15,2013-07-13 01:38:00,
2013-07-12 19:43:00,86.9,51.7,29.74,NE,55,2.0,9.0,30,0.00,,,0.00,Wunderground v.1.15,2013-07-13 01:43:00,
2013-07-12 19:53:00,86.2,51.1,29.75,East,88,3.0,9.0,30,0.00,,,0.00,Wunderground v.1.15,2013-07-13 01:53:00,
2013-07-12 20:03:00,85.7,50.7,29.75,SE,138,0.0,1.0,30,0.00,,,0.00,Wunderground v.1.15,2013-07-13 02:03:00,
2013-07-12 20:08:00,85.4,51.3,29.76,SSE,158,1.0,2.0,31,0.00,,,0.00,Wunderground v.1.15,2013-07-13 02:08:00,
2013-07-12 20:18:00,84.0,51.8,29.77,SE,135,7.0,7.0,33,0.00,,,0.00,Wunderground v.1.15,2013-07-13 02:18:00,
2013-07-12 20:28:00,83.0,51.7,29.77,SE,128,7.0,7.0,34,0.00,,,0.00,Wunderground v.1.15,2013-07-13 02:28:00,
2013-07-12 20:38:00,82.3,53.4,29.77,SE,146,5.0,5.0,37,0.00,,,0.00,Wunderground v.1.15,2013-07-13 02:38:00,
2013-07-12 20:48:00,81.7,53.6,29.77,SSE,159,4.0,5.0,38,0.00,,,0.00,Wunderground v.1.15,2013-07-13 02:48:00,
2013-07-12 20:58:00,81.7,52.9,29.77,SE,145,3.0,3.0,37,0.00,,,0.00,Wunderground v.1.15,2013-07-13 02:58:00,
2013-07-12 21:08:00,81.7,52.9,29.77,SE,141,3.0,3.0,37,0.00,,,0.00,Wunderground v.1.15,2013-07-13 03:08:00,
2013-07-12 21:13:00,81.8,52.2,29.77,SE,141,3.0,4.0,36,0.00,,,0.00,Wunderground v.1.15,2013-07-13 03:13:00,
2013-07-12 21:28:00,81.8,52.2,29.77,SSE,165,2.0,2.0,36,0.00,,,0.00,Wunderground v.1.15,2013-07-13 03:28:00,
2013-07-12 21:38:00,81.6,52.1,29.78,SSE,155,2.0,7.0,36,0.00,,,0.00,Wunderground v.1.15,2013-07-13 03:38:00,
2013-07-12 21:48:00,81.6,52.8,29.79,SSW,198,4.0,5.0,37,0.00,,,0.00,Wunderground v.1.15,2013-07-13 03:48:00,
2013-07-12 21:53:00,81.3,52.5,29.79,SE,141,4.0,5.0,37,0.00,,,0.00,Wunderground v.1.15,2013-07-13 03:53:00,
2013-07-12 22:03:00,80.8,53.5,29.80,SSE,149,4.0,4.0,39,0.00,,,0.00,Wunderground v.1.15,2013-07-13 04:03:00,
2013-07-12 22:08:00,80.5,53.3,29.80,SSE,158,4.0,10.0,39,0.00,,,0.00,Wunderground v.1.15,2013-07-13 04:08:00,
2013-07-12 22:13:00,80.1,52.9,29.80,SSE,164,6.0,10.0,39,0.00,,,0.00,Wunderground v.1.15,2013-07-13 04:13:00,
2013-07-12 22:18:00,79.8,53.3,29.80,ESE,112,6.0,6.0,40,0.00,,,0.00,Wunderground v.1.15,2013-07-13 04:18:00,
2013-07-12 22:23:00,79.5,53.7,29.80,SSE,159,4.0,7.0,41,0.00,,,0.00,Wunderground v.1.15,2013-07-13 04:23:00,
2013-07-12 22:28:00,79.3,53.6,29.81,ESE,122,4.0,4.0,41,0.00,,,0.00,Wunderground v.1.15,2013-07-13 04:28:00,
2013-07-12 22:38:00,79.3,52.9,29.81,SE,127,4.0,5.0,40,0.00,,,0.00,Wunderground v.1.15,2013-07-13 04:38:00,
2013-07-12 22:43:00,79.4,53.0,29.82,SE,146,3.0,5.0,40,0.00,,,0.00,Wunderground v.1.15,2013-07-13 04:43:00,
2013-07-12 22:53:00,79.3,52.9,29.82,ESE,114,3.0,3.0,40,0.00,,,0.00,Wunderground v.1.15,2013-07-13 04:53:00,
2013-07-12 22:58:00,79.2,52.8,29.82,ESE,115,2.0,3.0,40,0.00,,,0.00,Wunderground v.1.15,2013-07-13 04:58:00,
2013-07-12 23:08:00,79.0,52.6,29.82,SSE,165,1.0,1.0,40,0.00,,,0.00,Wunderground v.1.15,2013-07-13 05:08:00,
2013-07-12 23:13:00,78.6,52.9,29.83,SSE,162,0.0,1.0,41,0.00,,,0.00,Wunderground v.1.15,2013-07-13 05:13:00,
2013-07-12 23:23:00,78.0,52.4,29.83,SSE,152,0.0,0.0,41,0.00,,,0.00,Wunderground v.1.15,2013-07-13 05:23:00,
2013-07-12 23:33:00,77.8,51.5,29.83,SE,139,0.0,0.0,40,0.00,,,0.00,Wunderground v.1.15,2013-07-13 05:33:00,
2013-07-12 23:43:00,77.4,53.1,29.84,WSW,250,0.0,0.0,43,0.00,,,0.00,Wunderground v.1.15,2013-07-13 05:43:00,
2013-07-12 23:48:00,77.3,52.4,29.84,WSW,249,0.0,0.0,42,0.00,,,0.00,Wunderground v.1.15,2013-07-13 05:48:00,
2013-07-12 23:58:00,77.6,52.7,29.84,SE,143,0.0,1.0,42,0.00,,,0.00,Wunderground v.1.15,2013-07-13 05:58:00,